Time;durP1;ratioP1;P1;durP2;ratioP2;P2;SDS_P1;SDS_P2;PMS_P1;PMS_P2;Temp;Humidity;BMP_temperature;BMP_pressure;BME280_temperature;BME280_humidity;BME280_pressure;Samples;Min_cycle;Max_cycle;Signal;HPM_P1;HPM_P2
2022/09/25 09:15:46;;;;;;;;;;;;;;;16.81;78.96;96539.41;4229905;27;10431;-70
2022/09/25 09:17:49;;;;;;;;;;;;;;;17.08;78.45;96538.81;4231338;28;5765;-70
2022/09/25 09:20:02;;;;;;;;;;;;;;;17.31;77.66;96538.69;4231049;27;5671;-70
2022/09/25 09:22:09;;;;;;;;;;;;;;;17.48;77.19;96540.56;4227941;28;5737;-71
2022/09/25 09:24:16;;;;;;;;;;;;;;;17.61;76.79;96537.56;4229073;28;5798;-71
2022/09/25 09:26:25;;;;;;;;;;;;;;;17.70;76.52;96536.94;4231050;28;5769;-71
2022/09/25 09:29:04;;;;;;;;;;;;;;;17.78;76.07;96534.91;4231019;28;5687;-71
2022/09/25 09:31:17;;;;;;;;;;;;;;;17.85;75.45;96539.03;4195027;28;5921;-71
2022/09/25 09:33:34;;;;;;;;;;;;;;;17.88;75.35;96538.53;4189649;28;5759;-70
2022/09/25 09:35:47;;;;;;;;;;;;;;;17.91;75.04;96542.59;4192634;28;5805;-70
2022/09/25 09:38:03;;;;;;;;;;;;;;;17.97;74.91;96544.28;4192655;28;5908;-71
2022/09/25 09:40:23;;;;;;;;;;;;;;;18.03;74.73;96546.00;4194900;28;5761;-71
2022/09/25 09:42:33;;;;;;;;;;;;;;;18.09;74.15;96545.00;4195015;28;5745;-71
2022/09/25 09:44:56;;;;;;;;;;;;;;;18.11;74.13;96553.56;4194983;28;5748;-71
2022/09/25 09:47:07;;;;;;;;;;;;;;;18.13;74.07;96550.69;4186751;28;5842;-70
2022/09/25 09:49:16;;;;;;;;;;;;;;;18.19;73.68;96552.34;4187936;28;5846;-71
2022/09/25 09:51:24;;;;;;;;;;;;;;;18.24;73.64;96553.25;4194464;28;5825;-70
2022/09/25 09:53:32;;;;;;;;;;;;;;;18.27;73.37;96541.22;4193766;28;5735;-71
2022/09/25 09:55:40;;;;;;;;;;;;;;;18.34;73.37;96539.16;4194046;28;5785;-70
2022/09/25 09:57:47;;;;;;;;;;;;;;;18.36;73.04;96542.41;4192450;28;6411;-71
2022/09/25 09:59:54;;;;;;;;;;;;;;;18.37;72.72;96537.88;4189777;28;5771;-71
2022/09/25 10:02:16;;;;;;;;;;;;;;;18.37;72.46;96537.88;4191138;28;5775;-70
2022/09/25 10:04:25;;;;;;;;;;;;;;;18.37;72.45;96540.56;4194725;28;5728;-72
2022/09/25 10:06:30;;;;;;;;;;;;;;;18.40;72.41;96548.06;4227884;28;5635;-71
2022/09/25 10:08:34;;;;;;;;;;;;;;;18.44;72.12;96539.28;4224838;28;5679;-71
2022/09/25 10:10:39;;;;;;;;;;;;;;;18.50;72.03;96540.97;4217804;28;6035;-71
2022/09/25 10:12:46;;;;;;;;;;;;;;;18.53;71.93;96535.13;4219555;28;5792;-70
2022/09/25 10:14:49;;;;;;;;;;;;;;;18.57;71.74;96535.44;4216074;28;5787;-70
2022/09/25 10:16:53;;;;;;;;;;;;;;;18.59;71.63;96539.50;4215055;28;5660;-71
2022/09/25 10:19:01;;;;;;;;;;;;;;;18.60;71.39;96529.59;4212026;28;5680;-71
2022/09/25 10:21:11;;;;;;;;;;;;;;;18.61;71.01;96532.03;4212042;28;5672;-70
2022/09/25 10:23:30;;;;;;;;;;;;;;;18.61;70.96;96534.69;4214631;28;5687;-70
2022/09/25 10:25:38;;;;;;;;;;;;;;;18.62;70.61;96527.47;4211621;28;5812;-70
2022/09/25 10:27:44;;;;;;;;;;;;;;;18.63;70.59;96519.19;4202372;28;5712;-71
2022/09/25 10:30:01;;;;;;;;;;;;;;;18.67;70.34;96518.72;4209716;28;5703;-72
2022/09/25 10:32:04;;;;;;;;;;;;;;;18.67;70.28;96511.47;4212563;28;5667;-71
2022/09/25 10:34:22;;;;;;;;;;;;;;;18.70;69.94;96507.50;4216844;28;5844;-72
2022/09/25 10:36:35;;;;;;;;;;;;;;;18.71;69.94;96514.47;4206922;28;5671;-71
2022/09/25 10:38:44;;;;;;;;;;;;;;;18.72;69.56;96516.09;4213087;28;5687;-70
2022/09/25 10:40:59;;;;;;;;;;;;;;;18.75;69.55;96510.22;4207356;28;5759;-78
2022/09/25 10:43:05;;;;;;;;;;;;;;;18.79;69.36;96508.66;4214653;28;5699;-70
2022/09/25 10:45:29;;;;;;;;;;;;;;;18.81;69.14;96514.59;4220717;28;5815;-70
2022/09/25 10:50:11;;;;;;;;;;;;;;;18.79;68.63;96512.16;4217678;28;5837;-71
2022/09/25 10:52:17;;;;;;;;;;;;;;;18.78;68.36;96520.44;4213708;28;5803;-71
2022/09/25 10:54:20;;;;;;;;;;;;;;;18.75;68.03;96518.25;4202949;28;5708;-68
2022/09/25 10:56:31;;;;;;;;;;;;;;;18.73;68.19;96520.41;4207546;28;5667;-71
2022/09/25 10:58:42;;;;;;;;;;;;;;;18.70;67.97;96527.06;4206338;28;5663;-72
2022/09/25 11:00:55;;;;;;;;;;;;;;;18.72;67.69;96524.13;4201489;28;5692;-71
2022/09/25 11:03:02;;;;;;;;;;;;;;;18.82;67.68;96521.56;4202085;28;5772;-71
2022/09/25 11:05:16;;;;;;;;;;;;;;;18.93;67.53;96527.84;4201134;28;5839;-71
2022/09/25 11:07:26;;;;;;;;;;;;;;;19.03;67.35;96528.75;4210454;28;5818;-71
2022/09/25 11:09:31;;;;;;;;;;;;;;;19.09;66.69;96522.38;4217519;28;5833;-72
2022/09/25 11:11:36;;;;;;;;;;;;;;;19.18;66.86;96536.13;4212819;28;5798;-71
2022/09/25 11:13:46;;;;;;;;;;;;;;;19.25;66.62;96533.22;4218103;28;5806;-71
2022/09/25 11:15:53;;;;;;;;;;;;;;;19.31;66.72;96524.19;4204635;28;5770;-71
2022/09/25 11:17:57;;;;;;;;;;;;;;;19.36;66.35;96524.19;4217350;28;5765;-71
2022/09/25 11:20:19;;;;;;;;;;;;;;;19.37;66.25;96525.84;4218203;28;6397;-71
2022/09/25 11:22:33;;;;;;;;;;;;;;;19.40;65.97;96517.28;4217200;28;5667;-71
2022/09/25 11:24:45;;;;;;;;;;;;;;;19.44;66.14;96518.38;4218296;28;5663;-70
2022/09/25 11:26:54;;;;;;;;;;;;;;;19.45;65.55;96522.69;4216385;28;5809;-71
2022/09/25 11:29:06;;;;;;;;;;;;;;;19.44;65.79;96524.56;4218339;28;5674;-71
2022/09/25 11:31:15;;;;;;;;;;;;;;;19.46;65.36;96524.28;4211548;28;5238;-71
2022/09/25 11:33:25;;;;;;;;;;;;;;;19.46;65.27;96525.09;4215445;28;6085;-71
2022/09/25 11:35:43;;;;;;;;;;;;;;;19.51;65.01;96519.00;4216893;28;5818;-71
2022/09/25 11:37:58;;;;;;;;;;;;;;;19.53;64.75;96522.22;4217109;28;5682;-71
2022/09/25 11:42:58;;;;;;;;;;;;;;;19.54;64.49;96526.50;4197149;28;5973;-71
2022/09/25 11:45:07;;;;;;;;;;;;;;;19.57;64.01;96522.53;4197582;28;5724;-71
2022/09/25 11:47:17;;;;;;;;;;;;;;;19.60;64.08;96522.84;4177434;28;6117;-70
2022/09/25 11:49:23;;;;;;;;;;;;;;;19.64;63.58;96517.78;4195354;28;6527;-71
2022/09/25 11:51:51;;;;;;;;;;;;;;;19.67;63.21;96518.06;4197147;28;5724;-71
2022/09/25 11:54:05;;;;;;;;;;;;;;;19.66;63.17;96519.13;4194336;28;5724;-71
2022/09/25 11:56:38;;;;;;;;;;;;;;;19.68;62.69;96517.00;4197216;28;5783;-71
2022/09/25 11:58:53;;;;;;;;;;;;;;;19.69;62.82;96513.25;4197233;28;5750;-70
2022/09/25 12:01:06;;;;;;;;;;;;;;;19.72;62.77;96515.44;4197058;28;5987;-71
2022/09/25 12:03:28;;;;;;;;;;;;;;;19.71;62.41;96519.19;4193933;28;5814;-71
2022/09/25 12:05:51;;;;;;;;;;;;;;;19.71;62.49;96516.50;4178695;28;5757;-71
2022/09/25 12:08:14;;;;;;;;;;;;;;;19.76;62.17;96521.88;4194190;28;5814;-71
2022/09/25 12:10:28;;;;;;;;;;;;;;;19.76;61.97;96516.53;4194614;28;5731;-72
2022/09/25 12:12:39;;;;;;;;;;;;;;;19.82;62.04;96511.19;4192561;28;5902;-72
2022/09/25 12:14:50;;;;;;;;;;;;;;;19.78;61.88;96508.22;4196477;28;5806;-72
2022/09/25 12:17:01;;;;;;;;;;;;;;;19.75;61.40;96509.53;4191553;28;5753;-71
2022/09/25 12:19:16;;;;;;;;;;;;;;;19.74;61.61;96513.28;4199401;28;5668;-71
2022/09/25 12:21:28;;;;;;;;;;;;;;;19.75;61.40;96509.53;4211086;28;6475;-72
2022/09/25 12:23:34;;;;;;;;;;;;;;;19.73;60.98;96516.22;4212509;28;5726;-73
2022/09/25 12:25:49;;;;;;;;;;;;;;;19.70;61.10;96511.38;4211516;28;5812;-72
2022/09/25 12:28:00;;;;;;;;;;;;;;;19.72;60.79;96510.06;4210654;28;5823;-71
2022/09/25 12:30:15;;;;;;;;;;;;;;;19.76;60.86;96511.16;4208613;28;5806;-76
2022/09/25 12:32:30;;;;;;;;;;;;;;;19.80;60.55;96510.63;4204972;28;5762;-76
2022/09/25 12:34:54;;;;;;;;;;;;;;;19.84;60.47;96512.56;4205569;28;5877;-73
2022/09/25 12:37:07;;;;;;;;;;;;;;;19.89;60.34;96514.44;4206961;28;6007;-75
2022/09/25 12:39:26;;;;;;;;;;;;;;;19.89;59.83;96511.75;4203358;28;5801;-74
2022/09/25 12:41:39;;;;;;;;;;;;;;;19.83;60.14;96502.09;4209956;28;5695;-73
2022/09/25 12:43:47;;;;;;;;;;;;;;;19.84;60.00;96503.69;4215084;28;5667;-75
2022/09/25 12:45:57;;;;;;;;;;;;;;;19.83;59.83;96504.78;4211783;28;5948;-76
2022/09/25 12:48:08;;;;;;;;;;;;;;;19.84;59.44;96498.34;4207970;28;5832;-77
2022/09/25 12:50:16;;;;;;;;;;;;;;;19.85;59.31;96505.31;4208336;28;5933;-83
2022/09/25 12:52:25;;;;;;;;;;;;;;;19.86;59.26;96514.97;4203066;28;5889;-77
2022/09/25 12:54:34;;;;;;;;;;;;;;;19.86;58.90;96505.06;4213756;28;5675;-79
2022/09/25 12:56:44;;;;;;;;;;;;;;;19.87;58.75;96501.31;4215581;28;5675;-77
2022/09/25 12:59:01;;;;;;;;;;;;;;;19.89;58.72;96501.03;4209202;28;5846;-76
2022/09/25 13:01:11;;;;;;;;;;;;;;;19.93;58.53;96504.81;4211076;28;5878;-72
2022/09/25 13:03:21;;;;;;;;;;;;;;;19.89;58.57;96507.22;4209888;28;5719;-71
2022/09/25 13:05:30;;;;;;;;;;;;;;;19.86;58.45;96515.78;4209847;28;5763;-74
2022/09/25 13:07:39;;;;;;;;;;;;;;;19.85;58.19;96508.81;4212453;28;5822;-75
2022/09/25 13:09:45;;;;;;;;;;;;;;;19.81;58.13;96501.50;4214715;28;5679;-78
2022/09/25 13:11:54;;;;;;;;;;;;;;;19.78;57.82;96509.00;4209348;28;5683;-78
2022/09/25 13:14:00;;;;;;;;;;;;;;;19.75;58.12;96501.50;4208963;28;5755;-78
2022/09/25 13:16:04;;;;;;;;;;;;;;;19.74;57.97;96505.25;4208966;28;5663;-76
2022/09/25 13:18:16;;;;;;;;;;;;;;;19.69;57.75;96502.50;4210240;28;5684;-77
2022/09/25 13:20:42;;;;;;;;;;;;;;;19.64;57.55;96505.16;4213606;28;5918;-74
2022/09/25 13:22:45;;;;;;;;;;;;;;;19.60;57.71;96506.75;4207067;28;5706;-79
2022/09/25 13:24:52;;;;;;;;;;;;;;;19.58;57.41;96494.66;4214590;28;5915;-71
2022/09/25 13:27:02;;;;;;;;;;;;;;;19.56;57.18;96505.63;4206854;28;6568;-74
2022/09/25 13:29:14;;;;;;;;;;;;;;;19.55;57.35;96506.72;4207756;28;5670;-74
2022/09/25 13:31:23;;;;;;;;;;;;;;;19.52;57.02;96501.03;4205843;28;5955;-72
2022/09/25 13:33:27;;;;;;;;;;;;;;;19.51;57.35;96507.47;4210690;28;7805;-73
2022/09/25 13:35:31;;;;;;;;;;;;;;;19.49;56.99;96516.56;4213803;28;5763;-79
2022/09/25 13:37:37;;;;;;;;;;;;;;;19.49;57.22;96515.75;4217731;28;5675;-73
2022/09/25 13:42:06;;;;;;;;;;;;;;;19.44;57.24;96516.50;4210896;28;5786;-73
2022/09/25 13:44:40;;;;;;;;;;;;;;;19.46;57.17;96516.25;4213652;28;5773;-73
2022/09/25 13:46:42;;;;;;;;;;;;;;;19.45;57.26;96520.00;4211496;28;5674;-75
2022/09/25 13:48:45;;;;;;;;;;;;;;;19.44;56.80;96521.06;4207529;28;5683;-81
2022/09/25 13:50:52;;;;;;;;;;;;;;;19.42;56.87;96525.88;4212731;28;7253;-86
2022/09/25 13:53:16;;;;;;;;;;;;;;;19.39;56.92;96529.88;4211754;28;5770;-71
2022/09/25 13:55:19;;;;;;;;;;;;;;;19.40;56.82;96530.69;4207144;28;5097;-73
2022/09/25 13:57:53;;;;;;;;;;;;;;;19.38;56.93;96532.81;4215541;28;5230;-74
2022/09/25 14:00:05;;;;;;;;;;;;;;;19.39;56.83;96537.94;4214805;28;5663;-73
2022/09/25 14:02:45;;;;;;;;;;;;;;;19.39;56.81;96540.59;4202826;28;5696;-73
2022/09/25 14:04:48;;;;;;;;;;;;;;;19.36;57.05;96537.59;4168319;28;5774;-74
2022/09/25 14:06:55;;;;;;;;;;;;;;;19.41;56.74;96535.00;4192060;28;5813;-73
2022/09/25 14:09:06;;;;;;;;;;;;;;;19.45;56.94;96541.44;4183909;28;5820;-73
2022/09/25 14:11:13;;;;;;;;;;;;;;;19.44;56.82;96537.16;4184436;28;5824;-73
2022/09/25 14:13:21;;;;;;;;;;;;;;;19.44;56.65;96534.47;4184161;28;5748;-73
2022/09/25 14:15:31;;;;;;;;;;;;;;;19.44;56.76;96534.47;4178530;28;5781;-73
2022/09/25 14:17:36;;;;;;;;;;;;;;;19.44;56.90;96542.50;4200540;28;5824;-73
2022/09/25 14:19:42;;;;;;;;;;;;;;;19.44;56.83;96540.63;4191652;28;6521;-73
2022/09/25 14:21:47;;;;;;;;;;;;;;;19.45;56.67;96539.56;4204702;28;6564;-73
2022/09/25 14:23:54;;;;;;;;;;;;;;;19.45;56.66;96530.72;4188254;28;5744;-72
2022/09/25 14:25:58;;;;;;;;;;;;;;;19.47;56.70;96531.28;4175739;28;5533;-76
2022/09/25 14:28:02;;;;;;;;;;;;;;;19.42;56.48;96534.72;4193110;28;7695;-73
2022/09/25 14:30:10;;;;;;;;;;;;;;;19.38;56.45;96535.50;4189711;28;5868;-72
2022/09/25 14:32:28;;;;;;;;;;;;;;;19.36;56.14;96534.94;4177568;28;5831;-73
2022/09/25 14:35:03;;;;;;;;;;;;;;;19.34;55.95;96537.88;4184906;28;5733;-73
2022/09/25 14:37:26;;;;;;;;;;;;;;;19.29;55.97;96545.88;4184406;28;5756;-72
2022/09/25 14:39:42;;;;;;;;;;;;;;;19.26;55.78;96548.25;4193637;28;5732;-73
2022/09/25 14:42:05;;;;;;;;;;;;;;;19.23;55.75;96552.25;4207094;28;5686;-73
2022/09/25 14:44:28;;;;;;;;;;;;;;;19.21;56.02;96543.66;4217331;28;5761;-72
2022/09/25 14:46:32;;;;;;;;;;;;;;;19.20;55.52;96550.06;4219246;28;5691;-73
2022/09/25 14:48:41;;;;;;;;;;;;;;;19.16;55.42;96552.47;4215721;28;5870;-72
2022/09/25 14:50:47;;;;;;;;;;;;;;;19.16;55.64;96549.78;4202645;28;5740;-73
2022/09/25 14:52:54;;;;;;;;;;;;;;;19.14;55.54;96551.91;4202710;28;5696;-72
2022/09/25 14:54:59;;;;;;;;;;;;;;;19.16;55.66;96554.31;4201222;28;5716;-73
2022/09/25 14:57:02;;;;;;;;;;;;;;;19.14;55.40;96557.28;4204531;28;5691;-74
2022/09/25 14:59:10;;;;;;;;;;;;;;;19.12;55.55;96561.22;4216660;28;6315;-73
2022/09/25 15:01:19;;;;;;;;;;;;;;;19.13;55.48;96560.97;4203204;28;5863;-73
2022/09/25 15:03:29;;;;;;;;;;;;;;;19.11;55.31;96557.75;4218882;28;5683;-74
2022/09/25 15:05:33;;;;;;;;;;;;;;;19.06;55.42;96560.41;4207085;28;5699;-73
2022/09/25 15:07:42;;;;;;;;;;;;;;;19.07;55.50;96556.66;4203890;28;5684;-73
2022/09/25 15:09:49;;;;;;;;;;;;;;;19.07;55.26;96559.31;4225784;28;5646;-74
2022/09/25 15:11:54;;;;;;;;;;;;;;;19.06;55.28;96547.00;4233772;28;5653;-74
2022/09/25 15:14:10;;;;;;;;;;;;;;;19.09;55.47;96551.84;4230704;27;5675;-74
2022/09/25 15:18:39;;;;;;;;;;;;;;;19.14;55.36;96546.53;4216575;28;5790;-72
2022/09/25 15:20:48;;;;;;;;;;;;;;;19.16;55.30;96549.78;4217429;28;5684;-72
2022/09/25 15:22:56;;;;;;;;;;;;;;;19.16;55.07;96549.78;4201116;28;6375;-71
2022/09/25 15:25:02;;;;;;;;;;;;;;;19.18;55.07;96550.31;4201074;28;5885;-72
2022/09/25 15:27:07;;;;;;;;;;;;;;;19.17;55.13;96545.22;4200874;28;5704;-72
2022/09/25 15:29:16;;;;;;;;;;;;;;;19.15;55.00;96542.81;4201194;28;5681;-71
2022/09/25 15:31:19;;;;;;;;;;;;;;;19.17;55.01;96534.50;4205221;28;5115;-73
2022/09/25 15:33:24;;;;;;;;;;;;;;;19.16;54.89;96544.41;4216345;28;6375;-72
2022/09/25 15:35:28;;;;;;;;;;;;;;;19.15;55.11;96548.16;4216846;28;5798;-72
2022/09/25 15:37:32;;;;;;;;;;;;;;;19.16;54.99;96544.41;4217491;28;5695;-71
2022/09/25 15:39:41;;;;;;;;;;;;;;;19.16;54.75;96541.75;4208385;28;5802;-72
2022/09/25 15:41:44;;;;;;;;;;;;;;;19.17;54.84;96551.41;4199380;28;5759;-73
2022/09/25 15:43:48;;;;;;;;;;;;;;;19.17;55.01;96551.41;4212898;28;5667;-71
2022/09/25 15:45:57;;;;;;;;;;;;;;;19.12;55.10;96547.84;4202871;28;5795;-72
2022/09/25 15:48:02;;;;;;;;;;;;;;;19.08;54.96;96554.78;4201942;28;6535;-73
2022/09/25 15:50:17;;;;;;;;;;;;;;;19.07;55.07;96548.63;4203931;28;5743;-73
2022/09/25 15:52:23;;;;;;;;;;;;;;;19.06;55.04;96555.03;4213706;28;5676;-73
2022/09/25 15:54:37;;;;;;;;;;;;;;;19.04;55.38;96551.81;4209552;28;5862;-73
2022/09/25 15:56:47;;;;;;;;;;;;;;;19.04;55.25;96557.16;4203840;28;5894;-72
2022/09/25 15:58:53;;;;;;;;;;;;;;;19.04;55.31;96556.34;4208638;28;5832;-71
2022/09/25 16:05:48;;;;;;;;;;;;;;;19.02;55.41;96559.25;4211893;28;7699;-71
2022/09/25 16:07:52;;;;;;;;;;;;;;;19.01;55.64;96562.19;4215488;28;5762;-70
2022/09/25 16:09:58;;;;;;;;;;;;;;;18.99;55.48;96559.78;4215266;28;5656;-70
2022/09/25 16:12:27;;;;;;;;;;;;;;;19.00;55.65;96566.75;4215890;28;5085;-69
2022/09/25 16:14:30;;;;;;;;;;;;;;;19.01;55.56;96562.19;4215183;28;5835;-69
2022/09/25 16:16:33;;;;;;;;;;;;;;;18.99;55.61;96562.44;4215447;28;5097;-70
2022/09/25 16:18:39;;;;;;;;;;;;;;;18.99;55.56;96558.97;4211944;28;5871;-74
2022/09/25 16:20:42;;;;;;;;;;;;;;;18.99;55.87;96559.78;4211786;28;5826;-76
2022/09/25 16:22:47;;;;;;;;;;;;;;;18.96;55.77;96557.59;4203718;28;5676;-75
2022/09/25 16:24:51;;;;;;;;;;;;;;;18.96;55.65;96554.94;4210818;28;6956;-75
2022/09/25 16:26:58;;;;;;;;;;;;;;;18.96;55.65;96557.59;4204967;28;5671;-74
2022/09/25 16:29:07;;;;;;;;;;;;;;;18.93;55.44;96563.47;4201633;28;5685;-75
2022/09/25 16:31:10;;;;;;;;;;;;;;;18.88;55.50;96558.84;4197731;28;5688;-74
2022/09/25 16:33:21;;;;;;;;;;;;;;;18.82;55.57;96562.56;4207624;28;5683;-76
2022/09/25 16:35:33;;;;;;;;;;;;;;;18.82;55.82;96567.91;4205070;28;5838;-74
2022/09/25 16:37:56;;;;;;;;;;;;;;;18.84;55.83;96563.09;4214260;28;5745;-75
2022/09/25 16:40:23;;;;;;;;;;;;;;;18.85;55.74;96566.59;4219863;28;5864;-75
2022/09/25 16:42:39;;;;;;;;;;;;;;;18.85;55.79;96563.91;4200679;28;5712;-76
2022/09/25 16:44:45;;;;;;;;;;;;;;;18.84;55.69;96567.66;4206272;28;5689;-76
2022/09/25 16:47:05;;;;;;;;;;;;;;;18.82;55.80;96575.13;4205643;28;5843;-76
2022/09/25 16:49:08;;;;;;;;;;;;;;;18.79;55.56;96571.06;4206550;28;5811;-75
2022/09/25 16:51:21;;;;;;;;;;;;;;;18.80;55.55;96571.88;4203115;28;5797;-75
2022/09/25 16:53:26;;;;;;;;;;;;;;;18.79;55.74;96568.38;4211811;28;5687;-75
2022/09/25 16:55:29;;;;;;;;;;;;;;;18.78;55.69;96574.00;4207773;28;5934;-76
2022/09/25 16:57:34;;;;;;;;;;;;;;;18.76;55.95;96571.56;4208224;28;5685;-77
2022/09/25 16:59:37;;;;;;;;;;;;;;;18.77;55.90;96567.81;4209014;28;5671;-76
2022/09/25 17:01:39;;;;;;;;;;;;;;;18.74;55.93;96562.19;4206075;28;5902;-77
2022/09/25 17:03:49;;;;;;;;;;;;;;;18.76;55.95;96576.94;4210785;28;7389;-75
2022/09/25 17:05:52;;;;;;;;;;;;;;;18.75;55.95;96572.63;4207215;28;5838;-74
2022/09/25 17:08:00;;;;;;;;;;;;;;;18.74;55.72;96570.22;4211988;28;5697;-75
2022/09/25 17:10:04;;;;;;;;;;;;;;;18.71;56.07;96579.56;4208455;28;5708;-75
2022/09/25 17:12:16;;;;;;;;;;;;;;;18.71;55.96;96576.88;4206760;28;5686;-76
2022/09/25 17:14:23;;;;;;;;;;;;;;;18.71;55.85;96578.75;4207342;28;5764;-74
2022/09/25 17:16:26;;;;;;;;;;;;;;;18.70;55.94;96585.16;4210949;28;5699;-73
2022/09/25 17:18:30;;;;;;;;;;;;;;;18.69;56.04;96586.19;4209289;28;5723;-73
2022/09/25 17:20:34;;;;;;;;;;;;;;;18.66;56.30;96587.50;4209209;28;5692;-72
2022/09/25 17:22:37;;;;;;;;;;;;;;;18.67;56.01;96593.69;4203459;28;5798;-72
2022/09/25 17:24:40;;;;;;;;;;;;;;;18.67;56.12;96596.34;4204825;28;5953;-79
2022/09/25 17:26:43;;;;;;;;;;;;;;;18.66;56.13;96592.06;4207036;28;5829;-82
2022/09/25 17:28:46;;;;;;;;;;;;;;;18.65;56.06;96595.78;4201159;28;5830;-78
2022/09/25 17:30:50;;;;;;;;;;;;;;;18.64;56.09;96597.66;4205289;28;5783;-78
2022/09/25 17:32:52;;;;;;;;;;;;;;;18.65;56.17;96601.97;4211061;28;5812;-76
2022/09/25 17:34:57;;;;;;;;;;;;;;;18.65;56.13;96596.59;4213361;28;6649;-78
2022/09/25 17:37:00;;;;;;;;;;;;;;;18.63;56.33;96596.81;4204117;28;5875;-79
2022/09/25 17:39:02;;;;;;;;;;;;;;;18.63;56.23;96594.16;4215194;28;5812;-80
2022/09/25 17:41:07;;;;;;;;;;;;;;;18.61;56.13;96601.63;4210271;28;5820;-76
2022/09/25 17:43:12;;;;;;;;;;;;;;;18.62;56.29;96599.75;4213981;28;5903;-80
2022/09/25 17:45:26;;;;;;;;;;;;;;;18.62;56.50;96600.56;4209533;28;5799;-79
2022/09/25 17:47:30;;;;;;;;;;;;;;;18.62;56.48;96597.06;4204963;28;5965;-77
2022/09/25 17:49:33;;;;;;;;;;;;;;;18.61;56.38;96604.31;4205705;28;6451;-77
2022/09/25 17:51:36;;;;;;;;;;;;;;;18.61;56.36;96606.97;4201823;28;5713;-83
2022/09/25 17:53:39;;;;;;;;;;;;;;;18.62;56.38;96605.09;4203516;28;5862;-75
2022/09/25 17:55:42;;;;;;;;;;;;;;;18.63;56.32;96615.56;4207915;28;5762;-86
2022/09/25 17:57:45;;;;;;;;;;;;;;;18.63;56.40;96612.88;4208953;28;5887;-76
2022/09/25 17:59:47;;;;;;;;;;;;;;;18.63;56.30;96618.25;4212430;28;5675;-82
2022/09/25 18:01:51;;;;;;;;;;;;;;;18.63;56.45;96620.91;4205444;28;5679;-76
2022/09/25 18:03:58;;;;;;;;;;;;;;;18.62;56.37;96619.31;4206187;28;5773;-76
2022/09/25 18:06:01;;;;;;;;;;;;;;;18.63;56.42;96620.91;4206794;28;5770;-79
2022/09/25 18:08:04;;;;;;;;;;;;;;;18.62;56.35;96621.97;4202240;28;5775;-88
2022/09/25 18:10:08;;;;;;;;;;;;;;;18.65;56.70;96623.38;4202189;28;6559;-79
2022/09/25 18:12:11;;;;;;;;;;;;;;;18.66;56.68;96624.19;4208162;28;5964;-79
2022/09/25 18:14:15;;;;;;;;;;;;;;;18.66;56.47;96621.50;4208753;28;5655;-81
2022/09/25 18:16:21;;;;;;;;;;;;;;;18.66;56.74;96622.31;4205117;28;5767;-83
2022/09/25 18:22:15;;;;;;;;;;;;;;;18.67;56.70;96625.81;4210286;28;6373;-82
2022/09/25 18:23:11;;;;;;;;;;;;;;;18.62;56.87;96624.66;4210895;28;5867;-86
2022/09/25 18:25:15;;;;;;;;;;;;;;;18.64;56.85;96621.75;4206275;28;5925;-74
2022/09/25 18:27:18;;;;;;;;;;;;;;;18.65;56.80;96627.91;4209449;28;5775;-76
2022/09/25 18:29:21;;;;;;;;;;;;;;;18.63;57.06;96625.47;4203132;28;5701;-77
2022/09/25 18:31:24;;;;;;;;;;;;;;;18.63;56.73;96626.28;4210503;28;5746;-77
2022/09/25 18:33:28;;;;;;;;;;;;;;;18.61;56.72;96631.06;4205919;28;6441;-78
2022/09/25 18:35:31;;;;;;;;;;;;;;;18.60;56.81;96640.16;4201996;28;6998;-79
2022/09/25 18:37:36;;;;;;;;;;;;;;;18.60;56.75;96634.81;4209072;28;5792;-77
2022/09/25 18:39:39;;;;;;;;;;;;;;;18.59;56.75;96635.88;4206047;28;7798;-82
2022/09/25 18:41:42;;;;;;;;;;;;;;;18.58;56.86;96634.25;4210088;28;5674;-79
2022/09/25 18:43:45;;;;;;;;;;;;;;;18.59;56.57;96645.78;4206989;28;5675;-75
2022/09/25 18:45:50;;;;;;;;;;;;;;;18.59;56.75;96638.56;4206246;28;5987;-77
2022/09/25 18:47:54;;;;;;;;;;;;;;;18.59;57.05;96640.41;4205193;28;5663;-80
2022/09/25 18:49:56;;;;;;;;;;;;;;;18.58;56.87;96638.81;4210284;28;5877;-80
2022/09/25 18:52:00;;;;;;;;;;;;;;;18.57;56.90;96640.66;4203663;28;5696;-78
2022/09/25 18:54:05;;;;;;;;;;;;;;;18.57;56.87;96638.00;4215573;28;5125;-79
2022/09/25 18:56:08;;;;;;;;;;;;;;;18.58;56.86;96633.44;4209510;28;5839;-77
2022/09/25 18:58:11;;;;;;;;;;;;;;;18.56;56.69;96636.34;4208820;28;5675;-73
2022/09/25 19:00:14;;;;;;;;;;;;;;;18.56;56.76;96641.69;4210125;28;6174;-82
2022/09/25 19:02:19;;;;;;;;;;;;;;;18.53;56.80;96642.19;4211103;27;6403;-76
2022/09/25 19:04:24;;;;;;;;;;;;;;;18.49;56.74;96635.72;4215164;27;5686;-76
2022/09/25 19:06:27;;;;;;;;;;;;;;;18.51;56.73;96643.50;4205965;28;5668;-80
2022/09/25 19:08:30;;;;;;;;;;;;;;;18.49;56.82;96646.44;4203808;28;5701;-77
2022/09/25 19:10:35;;;;;;;;;;;;;;;18.50;56.61;96647.25;4205339;28;6592;-73
2022/09/25 19:12:38;;;;;;;;;;;;;;;18.49;56.78;96641.09;4204498;28;5825;-71
2022/09/25 19:14:41;;;;;;;;;;;;;;;18.46;56.86;96646.94;4203865;28;5679;-77
2022/09/25 19:16:46;;;;;;;;;;;;;;;18.43;56.76;96644.72;4206234;28;5681;-83
2022/09/25 19:18:50;;;;;;;;;;;;;;;18.41;56.80;96646.84;4202287;28;6495;-75
2022/09/25 19:20:54;;;;;;;;;;;;;;;18.39;56.76;96640.94;4205566;28;5691;-74
2022/09/25 19:22:59;;;;;;;;;;;;;;;18.38;56.85;96650.03;4202676;28;5994;-76
2022/09/25 19:25:04;;;;;;;;;;;;;;;18.36;57.02;96654.81;4203754;28;5708;-75
2022/09/25 19:27:09;;;;;;;;;;;;;;;18.37;56.97;96658.31;4206455;28;5700;-76
2022/09/25 19:29:12;;;;;;;;;;;;;;;18.37;56.81;96653.75;4203785;28;5693;-76
2022/09/25 19:31:17;;;;;;;;;;;;;;;18.38;56.68;96655.38;4206013;28;5846;-75
2022/09/25 19:33:20;;;;;;;;;;;;;;;18.40;56.68;96652.44;4206481;28;6577;-75
2022/09/25 19:35:23;;;;;;;;;;;;;;;18.40;56.74;96663.97;4204520;28;5830;-76
2022/09/25 19:37:28;;;;;;;;;;;;;;;18.38;56.68;96660.72;4211381;28;5671;-76
2022/09/25 19:40:34;;;;;;;;;;;;;;;18.37;56.62;96671.69;4207251;28;5772;-77
2022/09/25 19:41:55;;;;;;;;;;;;;;;18.30;56.69;96674.53;4213255;28;5098;-77
2022/09/25 19:44:02;;;;;;;;;;;;;;;18.27;56.65;96667.78;4210881;28;5918;-78
2022/09/25 19:46:12;;;;;;;;;;;;;;;18.30;56.67;96671.84;4206901;28;5313;-78
2022/09/25 19:48:15;;;;;;;;;;;;;;;18.30;56.66;96674.53;4198591;28;7773;-74
2022/09/25 19:50:18;;;;;;;;;;;;;;;18.30;56.70;96669.16;4209704;28;5751;-70
2022/09/25 19:52:21;;;;;;;;;;;;;;;18.29;56.76;96671.03;4204555;28;5688;-72
2022/09/25 19:54:24;;;;;;;;;;;;;;;18.28;56.56;96660.56;4214215;28;5679;-68
2022/09/25 19:56:28;;;;;;;;;;;;;;;18.26;56.93;96673.41;4211186;28;5663;-73
2022/09/25 19:58:35;;;;;;;;;;;;;;;18.26;56.98;96665.38;4205309;28;5820;-80
2022/09/25 20:00:41;;;;;;;;;;;;;;;18.23;57.00;96664.00;4215006;28;5784;-85
2022/09/25 20:02:45;;;;;;;;;;;;;;;18.25;56.80;96667.25;4204097;28;6342;-76
2022/09/25 20:04:48;;;;;;;;;;;;;;;18.25;56.81;96664.56;4206712;28;5798;-78
2022/09/25 20:06:51;;;;;;;;;;;;;;;18.22;56.86;96664.22;4204445;28;5136;-73
2022/09/25 20:08:56;;;;;;;;;;;;;;;18.22;56.92;96662.34;4212294;28;5683;-83
2022/09/25 20:10:59;;;;;;;;;;;;;;;18.21;57.18;96666.09;4211306;28;5683;-74
2022/09/25 20:13:02;;;;;;;;;;;;;;;18.22;57.06;96667.69;4202724;28;5705;-72
2022/09/25 20:15:06;;;;;;;;;;;;;;;18.23;57.09;96669.34;4199644;28;5685;-78
2022/09/25 20:17:10;;;;;;;;;;;;;;;18.26;57.01;96676.06;4211835;28;5917;-74
2022/09/25 20:19:13;;;;;;;;;;;;;;;18.26;57.07;96663.50;4203976;28;5704;-78
2022/09/25 20:21:20;;;;;;;;;;;;;;;18.28;57.02;96672.09;4207117;28;6352;-81
2022/09/25 20:23:22;;;;;;;;;;;;;;;18.29;57.12;96675.56;4205192;28;5695;-79
2022/09/25 20:25:27;;;;;;;;;;;;;;;18.28;56.94;96666.75;4236961;27;5646;-74
2022/09/25 20:27:30;;;;;;;;;;;;;;;18.27;57.18;96669.66;4237739;27;5926;-69
2022/09/25 20:29:33;;;;;;;;;;;;;;;18.26;57.20;96673.41;4201243;28;5685;-74
2022/09/25 20:31:38;;;;;;;;;;;;;;;18.24;57.15;96670.16;4205538;28;5831;-74
2022/09/25 20:33:42;;;;;;;;;;;;;;;18.20;57.27;96661.78;4210553;28;7052;-77
2022/09/25 20:35:45;;;;;;;;;;;;;;;18.20;57.43;96663.66;4201752;28;5700;-75
2022/09/25 20:37:48;;;;;;;;;;;;;;;18.19;57.14;96662.84;4199475;28;5853;-73
2022/09/25 20:39:51;;;;;;;;;;;;;;;18.14;57.46;96667.31;4206597;28;5928;-74
2022/09/25 20:41:54;;;;;;;;;;;;;;;18.11;57.47;96659.75;4206095;28;5919;-78
2022/09/25 20:43:58;;;;;;;;;;;;;;;18.11;57.43;96673.94;4204465;28;5667;-75
2022/09/25 20:46:03;;;;;;;;;;;;;;;18.12;57.55;96656.88;4205065;28;5675;-75
2022/09/25 20:48:06;;;;;;;;;;;;;;;18.11;57.63;96663.25;4212083;28;5656;-76
2022/09/25 20:50:10;;;;;;;;;;;;;;;18.11;57.70;96665.94;4200259;28;5827;-75